Time;durP1;ratioP1;P1;durP2;ratioP2;P2;SDS_P1;SDS_P2;PMS_P1;PMS_P2;Temp;Humidity;BMP_temperature;BMP_pressure;BME280_temperature;BME280_humidity;BME280_pressure;Samples;Min_cycle;Max_cycle;Signal;HPM_P1;HPM_P2
2022/08/13 00:00:11;;;;;;;;;;;20.30;71.70;;;;;;5077770;28;19908;-63
2022/08/13 00:02:43;;;;;;;;;;;20.30;71.60;;;;;;5077653;28;19916;-63
2022/08/13 00:05:09;;;;;;;;;;;20.30;72.90;;;;;;5077411;28;19912;-63
2022/08/13 00:07:35;;;;;;;;;;;20.20;72.90;;;;;;5077384;28;20011;-62
2022/08/13 00:10:01;;;;;;;;;;;20.10;72.90;;;;;;5077597;28;19908;-63
2022/08/13 00:13:03;;;;;;;;;;;20.10;73.30;;;;;;5077385;28;20034;-63
2022/08/13 00:15:17;;;;;;;;;;;20.00;73.20;;;;;;5062090;28;20373;-62
2022/08/13 00:17:43;;;;;;;;;;;20.00;73.70;;;;;;5077456;28;19909;-63
2022/08/13 00:20:09;;;;;;;;;;;19.90;74.40;;;;;;5077390;28;19915;-62
2022/08/13 00:22:35;;;;;;;;;;;19.80;74.70;;;;;;5077014;28;20019;-63
2022/08/13 00:25:02;;;;;;;;;;;19.70;75.20;;;;;;5077308;28;19944;-64
2022/08/13 00:27:28;;;;;;;;;;;19.80;75.20;;;;;;5077285;28;19958;-63
2022/08/13 00:29:56;;;;;;;;;;;19.70;75.60;;;;;;5077248;28;20320;-63
2022/08/13 00:32:26;;;;;;;;;;;19.70;75.80;;;;;;5077211;28;20278;-63
2022/08/13 00:34:51;;;;;;;;;;;19.60;76.20;;;;;;5077118;28;19909;-62
2022/08/13 00:37:17;;;;;;;;;;;19.60;76.40;;;;;;5076807;28;19920;-63
2022/08/13 00:39:42;;;;;;;;;;;19.50;76.60;;;;;;5076755;28;19908;-63
2022/08/13 00:42:08;;;;;;;;;;;19.40;76.80;;;;;;5076555;28;19920;-63
2022/08/13 00:44:33;;;;;;;;;;;19.40;77.20;;;;;;5076746;28;19908;-64
2022/08/13 00:49:47;;;;;;;;;;;19.30;78.70;;;;;;5076412;28;19916;-64
2022/08/13 00:52:13;;;;;;;;;;;19.10;79.00;;;;;;5076588;28;19999;-63
2022/08/13 00:54:40;;;;;;;;;;;19.20;79.30;;;;;;5076523;28;19947;-63
2022/08/13 00:57:06;;;;;;;;;;;19.10;80.00;;;;;;5058591;28;19909;-63
2022/08/13 00:59:32;;;;;;;;;;;19.00;80.80;;;;;;5076669;28;19995;-63
2022/08/13 01:01:58;;;;;;;;;;;19.00;81.00;;;;;;5076583;28;19935;-63
2022/08/13 01:04:25;;;;;;;;;;;19.00;81.30;;;;;;5076364;28;19908;-63
2022/08/13 01:06:51;;;;;;;;;;;18.90;81.50;;;;;;5076319;28;19908;-63
2022/08/13 01:09:17;;;;;;;;;;;18.90;82.20;;;;;;5075778;28;19962;-63
2022/08/13 01:11:43;;;;;;;;;;;18.80;82.90;;;;;;5076493;28;19908;-62
2022/08/13 01:14:08;;;;;;;;;;;18.80;83.30;;;;;;5076409;28;20377;-62
2022/08/13 01:16:36;;;;;;;;;;;18.80;83.90;;;;;;5076403;28;19931;-62
2022/08/13 01:19:03;;;;;;;;;;;18.80;84.30;;;;;;5076023;28;19954;-63
2022/08/13 01:21:31;;;;;;;;;;;18.80;85.30;;;;;;5076201;28;19953;-63
2022/08/13 01:23:57;;;;;;;;;;;18.70;85.40;;;;;;5076011;28;19908;-62
2022/08/13 01:26:23;;;;;;;;;;;18.70;86.50;;;;;;5058407;28;19951;-62
2022/08/13 01:28:50;;;;;;;;;;;18.70;86.80;;;;;;5075798;28;19952;-63
2022/08/13 01:31:16;;;;;;;;;;;18.60;85.90;;;;;;5076089;28;20413;-63
2022/08/13 01:33:43;;;;;;;;;;;18.60;86.50;;;;;;5075818;28;19908;-63
2022/08/13 01:36:09;;;;;;;;;;;18.50;87.60;;;;;;5076034;28;19915;-63
2022/08/13 01:38:36;;;;;;;;;;;18.40;87.90;;;;;;5075985;28;20359;-63
2022/08/13 01:41:02;;;;;;;;;;;18.40;88.80;;;;;;5075534;28;19927;-63
2022/08/13 01:43:30;;;;;;;;;;;18.40;89.70;;;;;;5075856;28;20409;-63
2022/08/13 01:45:57;;;;;;;;;;;18.30;89.80;;;;;;5075530;28;20390;-63
2022/08/13 01:51:08;;;;;;;;;;;18.20;90.70;;;;;;5075298;28;20041;-64
2022/08/13 01:53:34;;;;;;;;;;;18.10;91.60;;;;;;5057569;28;20389;-63
2022/08/13 01:56:00;;;;;;;;;;;18.00;92.10;;;;;;5075592;28;19943;-62
2022/08/13 01:58:28;;;;;;;;;;;17.90;93.00;;;;;;5075612;28;19909;-63
2022/08/13 02:00:55;;;;;;;;;;;17.90;93.40;;;;;;5075469;28;19958;-63
2022/08/13 02:03:20;;;;;;;;;;;17.80;94.10;;;;;;5075240;28;19908;-63
2022/08/13 02:05:47;;;;;;;;;;;17.80;94.80;;;;;;5075139;28;19962;-62
2022/08/13 02:08:13;;;;;;;;;;;17.70;94.80;;;;;;5075374;28;20280;-63
2022/08/13 02:10:41;;;;;;;;;;;17.80;95.20;;;;;;5057488;28;19909;-63
2022/08/13 02:13:09;;;;;;;;;;;17.80;95.50;;;;;;5075246;28;19955;-63
2022/08/13 02:15:35;;;;;;;;;;;17.70;95.70;;;;;;5074954;28;20389;-63
2022/08/13 02:18:03;;;;;;;;;;;17.70;96.10;;;;;;5075191;28;19909;-63
2022/08/13 02:20:34;;;;;;;;;;;17.70;96.30;;;;;;5074380;28;19910;-63
2022/08/13 02:22:59;;;;;;;;;;;17.60;96.50;;;;;;5057677;28;20298;-63
2022/08/13 02:25:26;;;;;;;;;;;17.60;97.60;;;;;;5075035;28;19909;-63
2022/08/13 02:27:56;;;;;;;;;;;17.40;98.60;;;;;;5075017;28;20323;-63
2022/08/13 02:30:25;;;;;;;;;;;17.40;99.10;;;;;;5074873;28;19916;-62
2022/08/13 02:32:51;;;;;;;;;;;17.30;99.80;;;;;;5074600;28;19996;-63
2022/08/13 02:35:18;;;;;;;;;;;17.30;99.90;;;;;;5074865;28;19956;-63
2022/08/13 02:37:44;;;;;;;;;;;17.20;99.90;;;;;;5074878;28;20345;-63
2022/08/13 02:41:38;;;;;;;;;;;17.20;99.90;;;;;;5074601;28;20359;-63
2022/08/13 02:42:58;;;;;;;;;;;17.20;99.90;;;;;;5074147;28;19912;-62
2022/08/13 02:45:23;;;;;;;;;;;17.10;99.90;;;;;;5074652;28;19908;-63
2022/08/13 02:47:51;;;;;;;;;;;17.10;99.90;;;;;;5074357;28;20321;-62
2022/08/13 02:50:20;;;;;;;;;;;17.00;99.90;;;;;;5074568;28;19908;-63
2022/08/13 02:52:47;;;;;;;;;;;17.00;99.90;;;;;;5074520;28;19982;-63
2022/08/13 02:55:13;;;;;;;;;;;17.00;99.90;;;;;;5074465;28;20370;-63
2022/08/13 02:57:38;;;;;;;;;;;16.90;99.90;;;;;;5074430;28;19938;-62
2022/08/13 03:00:04;;;;;;;;;;;17.00;99.90;;;;;;5074363;28;19958;-63
2022/08/13 03:02:31;;;;;;;;;;;16.90;99.90;;;;;;5073986;28;19917;-62
2022/08/13 03:04:59;;;;;;;;;;;16.90;99.90;;;;;;5074293;28;20011;-63
2022/08/13 03:07:26;;;;;;;;;;;16.90;99.90;;;;;;5074281;28;19908;-63
2022/08/13 03:09:51;;;;;;;;;;;17.00;99.90;;;;;;5073940;28;19909;-63
2022/08/13 03:12:19;;;;;;;;;;;17.00;99.90;;;;;;5056070;28;19913;-63
2022/08/13 03:14:45;;;;;;;;;;;17.00;99.90;;;;;;5074188;28;20311;-63
2022/08/13 03:17:10;;;;;;;;;;;17.00;99.90;;;;;;5073881;28;20345;-63
2022/08/13 03:19:36;;;;;;;;;;;17.00;99.90;;;;;;5073787;28;19908;-63
2022/08/13 03:22:01;;;;;;;;;;;16.90;99.90;;;;;;5073735;28;19912;-63
2022/08/13 03:24:27;;;;;;;;;;;16.90;99.90;;;;;;5074045;28;19912;-63
2022/08/13 03:26:53;;;;;;;;;;;16.80;99.90;;;;;;5074037;28;19987;-62
2022/08/13 03:29:18;;;;;;;;;;;16.80;99.90;;;;;;5074029;28;19931;-63
2022/08/13 03:31:44;;;;;;;;;;;16.80;99.90;;;;;;5073390;28;19908;-63
2022/08/13 03:34:10;;;;;;;;;;;16.90;99.90;;;;;;5073647;28;19908;-63
2022/08/13 03:36:37;;;;;;;;;;;17.00;99.90;;;;;;5073661;28;20363;-63
2022/08/13 03:39:03;;;;;;;;;;;17.10;99.90;;;;;;5073846;28;20325;-63
2022/08/13 03:41:28;;;;;;;;;;;17.30;99.90;;;;;;5073403;28;19927;-63
2022/08/13 03:43:57;;;;;;;;;;;17.30;99.90;;;;;;5073134;28;21286;-63
2022/08/13 03:46:24;;;;;;;;;;;17.40;99.90;;;;;;5073798;28;19920;-62
2022/08/13 03:48:50;;;;;;;;;;;17.50;99.90;;;;;;5055940;28;19920;-63
2022/08/13 03:51:22;;;;;;;;;;;17.60;99.90;;;;;;5073761;28;19954;-63
2022/08/13 03:53:49;;;;;;;;;;;17.60;99.90;;;;;;5073686;28;19915;-64
2022/08/13 03:56:15;;;;;;;;;;;17.70;99.90;;;;;;5073713;28;20354;-63
2022/08/13 03:58:40;;;;;;;;;;;17.70;99.90;;;;;;5073390;28;20011;-63
2022/08/13 04:01:06;;;;;;;;;;;17.70;99.90;;;;;;5055489;28;19978;-63
2022/08/13 04:03:36;;;;;;;;;;;17.70;99.90;;;;;;5073428;28;19908;-63
2022/08/13 04:06:05;;;;;;;;;;;17.70;99.90;;;;;;5073599;28;19909;-63
2022/08/13 04:08:34;;;;;;;;;;;17.70;99.90;;;;;;5073560;28;19915;-63
2022/08/13 04:11:00;;;;;;;;;;;17.60;99.90;;;;;;5073554;28;20342;-63
2022/08/13 04:13:27;;;;;;;;;;;17.60;99.90;;;;;;5073572;28;20267;-63
2022/08/13 04:15:52;;;;;;;;;;;17.60;99.90;;;;;;5073525;28;20381;-63
2022/08/13 04:18:18;;;;;;;;;;;17.50;99.90;;;;;;5073525;28;19909;-63
2022/08/13 04:20:52;;;;;;;;;;;17.40;99.90;;;;;;5055259;28;19908;-63
2022/08/13 04:23:19;;;;;;;;;;;17.30;99.90;;;;;;5073183;28;20255;-63
2022/08/13 04:25:45;;;;;;;;;;;17.20;99.90;;;;;;5073165;28;20294;-62
2022/08/13 04:28:12;;;;;;;;;;;17.20;99.90;;;;;;5073412;28;19915;-63
2022/08/13 04:30:39;;;;;;;;;;;17.10;99.90;;;;;;5073372;28;19995;-63
2022/08/13 04:33:05;;;;;;;;;;;17.00;99.90;;;;;;5073351;28;19995;-63
2022/08/13 04:35:30;;;;;;;;;;;17.00;99.90;;;;;;5055103;28;19939;-63
2022/08/13 04:37:57;;;;;;;;;;;16.90;99.90;;;;;;5073337;28;20418;-63
2022/08/13 04:40:23;;;;;;;;;;;16.90;99.90;;;;;;5073052;28;19924;-63
2022/08/13 04:42:50;;;;;;;;;;;16.90;99.90;;;;;;5073239;28;19916;-64
2022/08/13 04:45:16;;;;;;;;;;;16.90;99.90;;;;;;5075387;28;19908;-64
2022/08/13 04:47:42;;;;;;;;;;;16.90;99.90;;;;;;5076926;28;20074;-63
2022/08/13 04:50:10;;;;;;;;;;;16.90;99.90;;;;;;5076584;28;20362;-64
2022/08/13 04:52:35;;;;;;;;;;;16.90;99.90;;;;;;5076841;28;20355;-63
2022/08/13 04:55:02;;;;;;;;;;;17.00;99.90;;;;;;5058732;28;19951;-63
2022/08/13 04:57:28;;;;;;;;;;;17.10;99.90;;;;;;5076714;28;20050;-63
2022/08/13 04:59:54;;;;;;;;;;;17.20;99.90;;;;;;5076699;28;20355;-63
2022/08/13 05:02:21;;;;;;;;;;;17.30;99.90;;;;;;5076678;28;20252;-63
2022/08/13 05:04:47;;;;;;;;;;;17.40;99.90;;;;;;5076397;28;19974;-63
2022/08/13 05:07:13;;;;;;;;;;;17.50;99.90;;;;;;5076641;28;19908;-63
2022/08/13 05:09:39;;;;;;;;;;;17.70;99.90;;;;;;5076500;28;20363;-62
2022/08/13 05:12:05;;;;;;;;;;;17.80;99.90;;;;;;5076462;28;19909;-62
2022/08/13 05:14:30;;;;;;;;;;;17.90;99.90;;;;;;5076420;28;20327;-63
2022/08/13 05:16:55;;;;;;;;;;;17.90;99.90;;;;;;5058178;28;19999;-63
2022/08/13 05:19:22;;;;;;;;;;;18.10;99.90;;;;;;5076377;28;19908;-63
2022/08/13 05:21:48;;;;;;;;;;;18.10;99.90;;;;;;5076200;28;20370;-63
2022/08/13 05:24:13;;;;;;;;;;;18.30;99.90;;;;;;5076213;28;19959;-63
2022/08/13 05:26:39;;;;;;;;;;;18.30;99.90;;;;;;5076168;28;19915;-63
2022/08/13 05:29:04;;;;;;;;;;;18.50;99.90;;;;;;5075831;28;20402;-64
2022/08/13 05:31:31;;;;;;;;;;;18.50;99.90;;;;;;5076133;28;19915;-63
2022/08/13 05:33:57;;;;;;;;;;;18.60;99.90;;;;;;5076099;28;20274;-63
2022/08/13 05:36:28;;;;;;;;;;;18.80;99.90;;;;;;5057874;28;19916;-63
2022/08/13 05:38:55;;;;;;;;;;;19.00;99.90;;;;;;5076009;28;20411;-63
2022/08/13 05:41:22;;;;;;;;;;;19.20;99.90;;;;;;5054276;28;20310;-63
2022/08/13 05:43:50;;;;;;;;;;;19.40;99.90;;;;;;5055912;28;19916;-63
2022/08/13 05:46:16;;;;;;;;;;;19.60;99.90;;;;;;5055846;28;19912;-62
2022/08/13 05:48:43;;;;;;;;;;;20.00;99.90;;;;;;5055483;28;19908;-63
2022/08/13 05:51:09;;;;;;;;;;;;;;;;;;5055683;28;20279;-63
2022/08/13 05:53:36;;;;;;;;;;;25.00;89.20;;;;;;5054184;28;19909;-63
2022/08/13 05:56:02;;;;;;;;;;;27.20;77.60;;;;;;5055353;28;19956;-63
2022/08/13 05:58:28;;;;;;;;;;;27.20;78.20;;;;;;5055613;28;19962;-63
2022/08/13 06:03:40;;;;;;;;;;;29.50;65.50;;;;;;5055074;28;19996;-63
2022/08/13 06:06:07;;;;;;;;;;;30.10;62.20;;;;;;5055517;28;19908;-64
2022/08/13 06:08:35;;;;;;;;;;;30.50;61.10;;;;;;5055445;28;19909;-63
2022/08/13 06:11:03;;;;;;;;;;;30.90;58.40;;;;;;5054194;28;19909;-63
2022/08/13 06:13:30;;;;;;;;;;;29.90;59.50;;;;;;5054914;28;19909;-64
2022/08/13 06:16:00;;;;;;;;;;;30.20;59.20;;;;;;5055162;28;19909;-64
2022/08/13 06:18:27;;;;;;;;;;;31.20;58.60;;;;;;5055151;28;19909;-63
2022/08/13 06:20:53;;;;;;;;;;;31.50;56.60;;;;;;5055118;28;20363;-64
2022/08/13 06:23:20;;;;;;;;;;;30.50;57.60;;;;;;5055163;28;19908;-63
2022/08/13 06:25:46;;;;;;;;;;;31.70;56.60;;;;;;5054880;28;19955;-64
2022/08/13 06:28:15;;;;;;;;;;;32.40;55.90;;;;;;5054976;28;19956;-64
2022/08/13 06:30:41;;;;;;;;;;;32.80;54.20;;;;;;5054992;28;20374;-63
2022/08/13 06:33:06;;;;;;;;;;;32.70;53.70;;;;;;5054927;28;19908;-64
2022/08/13 06:35:34;;;;;;;;;;;32.40;54.50;;;;;;5054912;28;20304;-64
2022/08/13 06:38:00;;;;;;;;;;;31.70;54.80;;;;;;5054839;28;20008;-64
2022/08/13 06:40:28;;;;;;;;;;;32.40;54.50;;;;;;5059598;28;20393;-63
2022/08/13 06:42:55;;;;;;;;;;;32.00;54.70;;;;;;5074445;28;20083;-64
2022/08/13 06:45:23;;;;;;;;;;;31.80;54.40;;;;;;5057016;28;19934;-64
2022/08/13 06:47:48;;;;;;;;;;;32.20;54.40;;;;;;5074608;28;19909;-64
2022/08/13 06:50:14;;;;;;;;;;;32.30;54.40;;;;;;5074560;28;19916;-64
2022/08/13 06:52:39;;;;;;;;;;;33.00;53.20;;;;;;5074233;28;19916;-64
2022/08/13 06:55:07;;;;;;;;;;;34.00;52.20;;;;;;5074502;28;19908;-64
2022/08/13 06:57:35;;;;;;;;;;;33.90;51.90;;;;;;5074401;28;20010;-64
2022/08/13 07:00:01;;;;;;;;;;;34.00;51.30;;;;;;5074370;28;19909;-64
2022/08/13 07:02:27;;;;;;;;;;;32.80;52.80;;;;;;5074289;28;19920;-64
2022/08/13 07:04:55;;;;;;;;;;;33.30;53.10;;;;;;5074099;28;19908;-64
2022/08/13 07:07:21;;;;;;;;;;;33.30;52.80;;;;;;5073705;28;19909;-64
2022/08/13 07:09:47;;;;;;;;;;;33.70;52.10;;;;;;5074245;28;20465;-64
2022/08/13 07:12:13;;;;;;;;;;;34.90;51.30;;;;;;5074178;28;19912;-64
2022/08/13 07:14:40;;;;;;;;;;;35.50;48.80;;;;;;5056316;28;19912;-65
2022/08/13 07:17:06;;;;;;;;;;;36.20;49.00;;;;;;5074161;28;20359;-64
2022/08/13 07:19:33;;;;;;;;;;;36.20;48.40;;;;;;5074225;28;19915;-64
2022/08/13 07:21:58;;;;;;;;;;;35.70;49.10;;;;;;5074001;28;19920;-64
2022/08/13 07:24:26;;;;;;;;;;;36.20;48.60;;;;;;5073749;28;19908;-64
2022/08/13 07:26:59;;;;;;;;;;;36.30;48.20;;;;;;5073997;28;19908;-64
2022/08/13 07:29:26;;;;;;;;;;;35.80;48.60;;;;;;5073924;28;19912;-64
2022/08/13 07:31:53;;;;;;;;;;;35.70;47.60;;;;;;5073937;28;19908;-64
2022/08/13 07:34:19;;;;;;;;;;;35.20;49.20;;;;;;5073891;28;20332;-64
2022/08/13 07:36:45;;;;;;;;;;;35.80;48.10;;;;;;5073925;28;19913;-64
2022/08/13 07:39:11;;;;;;;;;;;35.70;48.10;;;;;;5073886;28;19909;-64
2022/08/13 07:41:40;;;;;;;;;;;36.10;47.90;;;;;;5073361;28;19970;-64
2022/08/13 07:44:06;;;;;;;;;;;36.80;46.70;;;;;;5073825;28;19915;-64
2022/08/13 07:46:42;;;;;;;;;;;36.60;46.60;;;;;;5073526;28;19944;-64
2022/08/13 07:49:09;;;;;;;;;;;36.40;45.90;;;;;;5073800;28;20455;-64
2022/08/13 07:51:37;;;;;;;;;;;36.40;46.10;;;;;;5073748;28;19909;-64
2022/08/13 07:54:05;;;;;;;;;;;35.80;46.90;;;;;;5073744;28;20359;-64
2022/08/13 07:56:31;;;;;;;;;;;36.10;46.80;;;;;;5073695;28;20278;-64
2022/08/13 07:59:00;;;;;;;;;;;37.20;46.10;;;;;;5073453;28;20377;-64
2022/08/13 08:01:27;;;;;;;;;;;37.40;45.30;;;;;;5073278;28;19912;-64
2022/08/13 08:03:54;;;;;;;;;;;37.20;45.30;;;;;;5073604;28;19909;-64
2022/08/13 08:06:20;;;;;;;;;;;36.10;46.40;;;;;;5073632;28;20404;-64
2022/08/13 08:08:46;;;;;;;;;;;35.80;46.90;;;;;;5073320;28;19909;-64
2022/08/13 08:12:30;;;;;;;;;;;36.60;46.70;;;;;;5073553;28;20259;-64
2022/08/13 08:13:59;;;;;;;;;;;36.60;45.30;;;;;;5073038;28;19912;-64
2022/08/13 08:16:28;;;;;;;;;;;37.60;44.70;;;;;;5073213;28;20426;-64
2022/08/13 08:18:53;;;;;;;;;;;37.80;44.10;;;;;;5075418;28;19935;-64
2022/08/13 08:21:23;;;;;;;;;;;38.00;44.80;;;;;;5077379;28;19913;-64
2022/08/13 08:23:51;;;;;;;;;;;36.90;45.50;;;;;;5077106;28;19915;-64
2022/08/13 08:26:17;;;;;;;;;;;37.70;44.10;;;;;;5077374;28;20327;-64
2022/08/13 08:28:45;;;;;;;;;;;37.50;44.20;;;;;;5077294;28;20309;-64
2022/08/13 08:31:11;;;;;;;;;;;37.40;45.00;;;;;;5059102;28;19908;-64
2022/08/13 08:33:40;;;;;;;;;;;37.50;45.30;;;;;;5076975;28;19909;-64
2022/08/13 08:36:06;;;;;;;;;;;38.30;44.20;;;;;;5076863;28;20063;-64
2022/08/13 08:44:03;;;;;;;;;;;37.90;44.00;;;;;;5061655;28;19960;-64
2022/08/13 08:46:34;;;;;;;;;;;38.10;44.10;;;;;;5076669;28;19915;-64
2022/08/13 08:49:01;;;;;;;;;;;37.20;44.40;;;;;;5076836;28;20419;-64
2022/08/13 08:51:27;;;;;;;;;;;36.90;44.90;;;;;;5076889;28;19908;-64
2022/08/13 08:53:52;;;;;;;;;;;36.60;45.30;;;;;;5076829;28;19915;-64
2022/08/13 08:56:20;;;;;;;;;;;37.00;44.90;;;;;;5076497;28;20003;-64
2022/08/13 08:58:45;;;;;;;;;;;36.90;45.20;;;;;;5076709;28;20366;-64
2022/08/13 09:01:11;;;;;;;;;;;37.00;45.50;;;;;;5076595;28;19908;-64
2022/08/13 09:03:40;;;;;;;;;;;37.20;44.60;;;;;;5076625;28;20367;-64
2022/08/13 09:06:07;;;;;;;;;;;36.60;45.20;;;;;;5076575;28;20354;-64
2022/08/13 09:08:33;;;;;;;;;;;37.00;44.60;;;;;;5076583;28;19954;-64
2022/08/13 09:10:59;;;;;;;;;;;37.00;44.80;;;;;;5076518;28;20390;-64
2022/08/13 09:13:25;;;;;;;;;;;37.20;44.90;;;;;;5076251;28;19908;-64
2022/08/13 09:15:50;;;;;;;;;;;37.10;44.50;;;;;;5076150;28;19938;-64
2022/08/13 09:18:17;;;;;;;;;;;37.30;44.90;;;;;;5058127;28;19915;-64
2022/08/13 09:20:44;;;;;;;;;;;36.80;43.60;;;;;;5076348;28;20286;-64
2022/08/13 09:23:12;;;;;;;;;;;36.80;44.20;;;;;;5075957;28;19913;-65
2022/08/13 09:25:41;;;;;;;;;;;36.40;43.20;;;;;;5076214;28;19944;-64
2022/08/13 09:28:08;;;;;;;;;;;36.10;44.60;;;;;;5076140;28;20427;-64
2022/08/13 09:30:34;;;;;;;;;;;36.40;44.80;;;;;;5075576;28;19993;-64
2022/08/13 09:33:00;;;;;;;;;;;36.10;45.70;;;;;;5076097;28;19908;-64
2022/08/13 09:35:28;;;;;;;;;;;36.10;45.40;;;;;;5057816;28;19995;-64
2022/08/13 09:37:56;;;;;;;;;;;36.00;46.10;;;;;;5075953;28;19908;-64
2022/08/13 09:40:24;;;;;;;;;;;35.80;46.30;;;;;;5075438;28;20398;-64
2022/08/13 09:42:57;;;;;;;;;;;35.80;45.50;;;;;;5057830;28;19950;-64
2022/08/13 09:45:25;;;;;;;;;;;35.50;45.40;;;;;;5075828;28;19909;-64
2022/08/13 09:47:51;;;;;;;;;;;35.60;46.40;;;;;;5075771;28;20259;-64
2022/08/13 09:50:16;;;;;;;;;;;35.20;46.00;;;;;;5075558;28;19909;-64
2022/08/13 09:52:42;;;;;;;;;;;34.50;46.60;;;;;;5075650;28;19916;-64
2022/08/13 09:55:08;;;;;;;;;;;34.90;47.00;;;;;;5075691;28;19999;-64
2022/08/13 09:57:53;;;;;;;;;;;35.10;46.10;;;;;;5075362;28;19908;-64
2022/08/13 10:00:21;;;;;;;;;;;34.90;46.60;;;;;;5075188;28;20297;-64
2022/08/13 10:02:50;;;;;;;;;;;34.60;46.90;;;;;;5075476;28;19912;-64
2022/08/13 10:05:17;;;;;;;;;;;35.00;46.80;;;;;;5075456;28;19909;-64
2022/08/13 10:07:42;;;;;;;;;;;34.80;46.90;;;;;;5075147;28;20386;-64
2022/08/13 10:10:08;;;;;;;;;;;34.70;46.70;;;;;;5075368;28;19908;-65
2022/08/13 10:12:34;;;;;;;;;;;34.50;47.10;;;;;;5075114;28;19958;-64
2022/08/13 10:14:59;;;;;;;;;;;34.90;46.70;;;;;;5074984;28;19908;-64
2022/08/13 10:17:25;;;;;;;;;;;35.00;45.80;;;;;;5074991;28;20321;-64
2022/08/13 10:19:51;;;;;;;;;;;34.70;45.90;;;;;;5075194;28;19916;-64
2022/08/13 10:22:16;;;;;;;;;;;35.00;46.00;;;;;;5074784;28;20358;-64
2022/08/13 10:24:41;;;;;;;;;;;34.90;46.10;;;;;;5075089;28;19912;-64
2022/08/13 10:27:07;;;;;;;;;;;35.30;46.10;;;;;;5075076;28;19920;-64
2022/08/13 10:29:32;;;;;;;;;;;35.30;45.50;;;;;;5074922;28;19915;-64
2022/08/13 10:31:58;;;;;;;;;;;35.50;46.40;;;;;;5057114;28;19987;-64
2022/08/13 10:34:24;;;;;;;;;;;35.90;45.00;;;;;;5074645;28;19934;-64
2022/08/13 10:36:49;;;;;;;;;;;36.50;44.70;;;;;;5074868;28;19909;-64
2022/08/13 10:39:15;;;;;;;;;;;35.70;44.40;;;;;;5074545;28;20302;-64
2022/08/13 10:41:42;;;;;;;;;;;35.40;45.30;;;;;;5073414;28;19927;-64
2022/08/13 10:44:08;;;;;;;;;;;35.50;46.00;;;;;;5074400;28;19962;-64
2022/08/13 10:46:33;;;;;;;;;;;36.20;46.00;;;;;;5074691;28;19913;-64
2022/08/13 10:48:59;;;;;;;;;;;35.30;45.50;;;;;;5074481;28;19915;-64
2022/08/13 10:51:26;;;;;;;;;;;35.20;46.60;;;;;;5074579;28;19908;-64
2022/08/13 10:53:55;;;;;;;;;;;34.90;46.90;;;;;;5074492;28;19908;-64
2022/08/13 10:56:21;;;;;;;;;;;34.90;46.40;;;;;;5074228;28;20408;-64
2022/08/13 10:58:47;;;;;;;;;;;34.40;47.00;;;;;;5074411;28;19909;-64
2022/08/13 11:01:12;;;;;;;;;;;34.20;46.80;;;;;;5074058;28;19973;-64
2022/08/13 11:03:37;;;;;;;;;;;33.80;46.50;;;;;;5074061;28;19912;-64
2022/08/13 11:06:04;;;;;;;;;;;33.40;46.20;;;;;;5056147;28;20046;-64
2022/08/13 11:08:38;;;;;;;;;;;33.70;46.80;;;;;;5074179;28;19931;-64
2022/08/13 11:11:04;;;;;;;;;;;33.40;46.50;;;;;;5073957;28;19912;-64
2022/08/13 11:13:31;;;;;;;;;;;33.30;48.10;;;;;;5073950;28;19909;-63
2022/08/13 11:15:58;;;;;;;;;;;33.10;48.70;;;;;;5074149;28;19908;-64
2022/08/13 11:18:24;;;;;;;;;;;33.20;48.20;;;;;;5074082;28;19908;-64
2022/08/13 11:21:07;;;;;;;;;;;33.00;47.90;;;;;;5073835;28;19958;-64
2022/08/13 11:23:34;;;;;;;;;;;32.90;47.60;;;;;;5074083;28;19955;-64
2022/08/13 11:26:00;;;;;;;;;;;32.70;50.80;;;;;;5073792;28;20382;-64
2022/08/13 11:28:25;;;;;;;;;;;32.70;47.80;;;;;;5073967;28;19908;-64
2022/08/13 11:30:53;;;;;;;;;;;32.70;49.50;;;;;;5073721;28;19908;-64
2022/08/13 11:33:19;;;;;;;;;;;32.70;48.10;;;;;;5073903;28;20382;-64
2022/08/13 11:35:45;;;;;;;;;;;32.40;49.20;;;;;;5073616;28;19915;-64
2022/08/13 11:38:12;;;;;;;;;;;32.10;49.30;;;;;;5073868;28;19912;-64
2022/08/13 11:40:38;;;;;;;;;;;32.00;49.90;;;;;;5073461;28;19924;-64
2022/08/13 11:43:04;;;;;;;;;;;32.40;49.80;;;;;;5073534;28;19923;-64
2022/08/13 11:45:29;;;;;;;;;;;32.50;48.90;;;;;;5073473;28;19909;-64
2022/08/13 11:47:55;;;;;;;;;;;32.20;49.10;;;;;;5073477;28;20008;-64
2022/08/13 11:50:20;;;;;;;;;;;32.50;49.40;;;;;;5055694;28;19908;-64
2022/08/13 11:52:46;;;;;;;;;;;32.50;48.50;;;;;;5073521;28;19912;-64
2022/08/13 11:55:11;;;;;;;;;;;32.40;48.30;;;;;;5073476;28;20003;-64
2022/08/13 11:57:37;;;;;;;;;;;32.70;48.60;;;;;;5073737;28;19931;-64
2022/08/13 12:00:03;;;;;;;;;;;32.80;48.80;;;;;;5073686;28;20341;-64
2022/08/13 12:02:29;;;;;;;;;;;33.00;49.30;;;;;;5073324;28;19966;-64
2022/08/13 12:04:54;;;;;;;;;;;33.40;49.00;;;;;;5073638;28;19908;-64
2022/08/13 12:07:19;;;;;;;;;;;33.70;49.90;;;;;;5073404;28;19952;-64
2022/08/13 12:09:45;;;;;;;;;;;34.10;50.10;;;;;;5055725;28;19908;-63
2022/08/13 12:12:10;;;;;;;;;;;33.30;50.00;;;;;;5073639;28;19943;-63
2022/08/13 12:14:37;;;;;;;;;;;33.20;51.00;;;;;;5073571;28;19908;-64
2022/08/13 12:17:02;;;;;;;;;;;33.20;51.00;;;;;;5073524;28;19958;-64
2022/08/13 12:19:28;;;;;;;;;;;32.90;50.80;;;;;;5073186;28;20011;-64
2022/08/13 12:21:53;;;;;;;;;;;32.50;51.80;;;;;;5073320;28;19913;-64
2022/08/13 12:24:19;;;;;;;;;;;32.60;51.30;;;;;;5073419;28;19908;-64
2022/08/13 12:26:44;;;;;;;;;;;32.80;51.10;;;;;;5055515;28;19912;-64
2022/08/13 12:29:10;;;;;;;;;;;33.00;50.50;;;;;;5073362;28;19913;-65
2022/08/13 12:31:35;;;;;;;;;;;32.40;50.20;;;;;;5073333;28;19908;-64
2022/08/13 12:34:01;;;;;;;;;;;32.40;50.50;;;;;;5055099;28;20279;-64
2022/08/13 12:36:27;;;;;;;;;;;32.80;50.60;;;;;;5073381;28;19912;-64
2022/08/13 12:38:52;;;;;;;;;;;33.40;50.50;;;;;;5073294;28;19909;-64
2022/08/13 12:41:18;;;;;;;;;;;33.20;49.00;;;;;;5072908;28;20449;-65
2022/08/13 12:43:44;;;;;;;;;;;33.40;50.10;;;;;;5055206;28;20004;-65
2022/08/13 12:46:10;;;;;;;;;;;33.20;48.30;;;;;;5073042;28;19909;-65
2022/08/13 12:48:36;;;;;;;;;;;32.20;49.20;;;;;;5072998;28;19952;-64
2022/08/13 12:51:01;;;;;;;;;;;31.90;51.10;;;;;;5072922;28;20395;-64
2022/08/13 12:53:27;;;;;;;;;;;31.70;50.00;;;;;;5073175;28;19908;-64
2022/08/13 12:55:53;;;;;;;;;;;31.20;51.10;;;;;;5073097;28;20362;-64
2022/08/13 12:58:22;;;;;;;;;;;31.10;51.10;;;;;;5072883;28;19912;-64
2022/08/13 13:00:50;;;;;;;;;;;31.60;50.80;;;;;;5073079;28;19916;-64
2022/08/13 13:03:16;;;;;;;;;;;32.10;49.70;;;;;;5072750;28;19955;-63
2022/08/13 13:05:42;;;;;;;;;;;32.20;49.50;;;;;;5074296;28;19958;-64
2022/08/13 13:08:17;;;;;;;;;;;32.30;48.60;;;;;;5076479;28;20429;-64
2022/08/13 13:10:43;;;;;;;;;;;32.30;48.00;;;;;;5076520;28;19987;-64
2022/08/13 13:13:08;;;;;;;;;;;32.20;47.40;;;;;;5076321;28;19951;-64
2022/08/13 13:15:34;;;;;;;;;;;32.40;48.10;;;;;;5076434;28;19915;-64
2022/08/13 13:17:59;;;;;;;;;;;32.60;48.30;;;;;;5076092;28;19908;-64
2022/08/13 13:20:25;;;;;;;;;;;32.40;48.30;;;;;;5076096;28;19995;-64
2022/08/13 13:22:50;;;;;;;;;;;32.00;48.90;;;;;;5076244;28;19919;-64
2022/08/13 13:25:16;;;;;;;;;;;32.40;48.10;;;;;;5058186;28;19954;-65
2022/08/13 13:27:41;;;;;;;;;;;32.30;47.10;;;;;;5076186;28;20298;-65
2022/08/13 13:30:09;;;;;;;;;;;32.30;47.60;;;;;;5058035;28;20370;-64
2022/08/13 13:32:35;;;;;;;;;;;32.40;47.70;;;;;;5076194;28;19917;-64
2022/08/13 13:35:03;;;;;;;;;;;32.90;48.00;;;;;;5058073;28;19979;-64
2022/08/13 13:37:38;;;;;;;;;;;33.10;46.80;;;;;;5076087;28;19936;-64
2022/08/13 13:40:04;;;;;;;;;;;32.60;47.20;;;;;;5075569;28;19913;-64
2022/08/13 13:42:29;;;;;;;;;;;32.60;47.70;;;;;;5057744;28;19979;-64
2022/08/13 13:44:56;;;;;;;;;;;32.60;47.70;;;;;;5076013;28;19908;-64
2022/08/13 13:47:22;;;;;;;;;;;32.20;47.40;;;;;;5075856;28;19916;-64
2022/08/13 13:49:48;;;;;;;;;;;32.50;48.80;;;;;;5075867;28;20445;-64
2022/08/13 13:52:13;;;;;;;;;;;32.60;47.80;;;;;;5075840;28;19948;-64
2022/08/13 13:54:39;;;;;;;;;;;32.70;47.90;;;;;;5075575;28;20298;-64
2022/08/13 13:57:05;;;;;;;;;;;32.00;48.00;;;;;;5075558;28;19935;-64
2022/08/13 13:59:30;;;;;;;;;;;31.60;48.40;;;;;;5075660;28;19914;-63
2022/08/13 14:01:56;;;;;;;;;;;31.80;48.60;;;;;;5075574;28;19913;-64
2022/08/13 14:04:21;;;;;;;;;;;31.80;49.00;;;;;;5075598;28;20389;-64
2022/08/13 14:06:47;;;;;;;;;;;31.60;49.10;;;;;;5075338;28;19974;-64
2022/08/13 14:09:14;;;;;;;;;;;31.90;49.40;;;;;;5057650;28;19908;-64
2022/08/13 14:11:42;;;;;;;;;;;32.30;48.90;;;;;;5075408;28;20394;-64
2022/08/13 14:14:08;;;;;;;;;;;32.60;48.80;;;;;;5075386;28;19913;-64
2022/08/13 14:16:33;;;;;;;;;;;32.70;47.90;;;;;;5074939;28;20390;-64
2022/08/13 14:18:59;;;;;;;;;;;32.60;48.50;;;;;;5075251;28;19916;-63
2022/08/13 14:21:25;;;;;;;;;;;32.50;48.00;;;;;;5074803;28;19939;-64
2022/08/13 14:23:52;;;;;;;;;;;32.10;47.90;;;;;;5074826;28;19908;-64
2022/08/13 14:26:19;;;;;;;;;;;32.10;48.50;;;;;;5075068;28;20263;-63
2022/08/13 14:28:45;;;;;;;;;;;32.20;47.90;;;;;;5074957;28;19908;-63